createdAt,value
2023-03-19T00:00:41.824Z,4.60
2023-03-19T00:03:10.306Z,5.90
2023-03-19T00:05:38.738Z,4.28
2023-03-19T00:08:07.580Z,5.82
2023-03-19T00:10:40.567Z,5.70
2023-03-19T00:13:10.151Z,4.70
2023-03-19T00:15:38.648Z,5.80
2023-03-19T00:18:07.565Z,6.43
2023-03-19T00:20:35.932Z,6.43
2023-03-19T00:23:04.988Z,4.80
2023-03-19T00:25:33.856Z,6.63
2023-03-19T00:28:03.758Z,4.65
2023-03-19T00:30:32.306Z,4.90
2023-03-19T00:33:01.210Z,7.95
2023-03-19T00:35:29.736Z,6.35
2023-03-19T00:37:58.072Z,5.07
2023-03-19T00:40:27.245Z,5.35
2023-03-19T00:42:55.743Z,4.25
2023-03-19T00:45:25.422Z,4.80
2023-03-19T00:47:54.112Z,5.53
2023-03-19T00:50:22.783Z,6.43
2023-03-19T00:52:51.370Z,5.22
2023-03-19T00:55:20.160Z,4.43
2023-03-19T00:57:48.582Z,5.65
2023-03-19T01:00:17.688Z,4.78
2023-03-19T01:02:47.514Z,7.20
2023-03-19T01:05:17.053Z,3.65
2023-03-19T01:07:45.966Z,2.95
2023-03-19T01:10:14.544Z,3.53
2023-03-19T01:12:42.944Z,3.95
2023-03-19T01:15:12.360Z,3.92
2023-03-19T01:17:42.323Z,4.85
2023-03-19T01:20:14.107Z,2.47
2023-03-19T01:22:43.554Z,4.95
2023-03-19T01:25:14.543Z,3.58
2023-03-19T01:27:52.246Z,4.85
2023-03-19T01:30:21.601Z,3.53
2023-03-19T01:33:15.451Z,4.30
2023-03-19T01:36:12.216Z,6.60
2023-03-19T01:38:57.026Z,3.97
2023-03-19T01:41:25.729Z,3.60
2023-03-19T01:43:56.868Z,4.40
2023-03-19T01:46:42.179Z,3.63
2023-03-19T01:49:40.660Z,4.60
2023-03-19T01:52:20.685Z,4.03
2023-03-19T01:55:07.362Z,2.95
2023-03-19T01:57:52.384Z,2.20
2023-03-19T02:00:57.088Z,2.80
2023-03-19T02:03:25.761Z,4.95
2023-03-19T02:06:24.789Z,3.58
2023-03-19T02:08:54.971Z,4.85
2023-03-19T02:11:24.178Z,3.20
2023-03-19T02:13:52.721Z,2.85
2023-03-19T02:16:21.246Z,4.50
2023-03-19T02:18:50.364Z,3.00
2023-03-19T02:21:21.056Z,3.03
2023-03-19T02:23:59.386Z,4.20
2023-03-19T02:26:47.434Z,3.40
2023-03-19T02:29:15.978Z,4.15
2023-03-19T02:31:44.738Z,4.75
2023-03-19T02:34:35.642Z,3.25
2023-03-19T02:37:09.158Z,4.00
2023-03-19T02:39:44.879Z,3.40
2023-03-19T02:42:16.661Z,4.40
2023-03-19T02:44:46.099Z,2.53
2023-03-19T02:47:14.723Z,3.15
2023-03-19T02:49:43.060Z,2.42
2023-03-19T02:52:11.626Z,2.95
2023-03-19T02:54:40.086Z,3.55
2023-03-19T02:57:08.608Z,3.92
2023-03-19T02:59:38.899Z,3.22
2023-03-19T03:02:08.112Z,5.20
2023-03-19T03:04:38.137Z,3.45
2023-03-19T03:07:07.361Z,4.07
2023-03-19T03:09:36.231Z,3.33
2023-03-19T03:12:04.972Z,3.65
2023-03-19T03:14:33.317Z,2.42
2023-03-19T03:17:03.234Z,4.30
2023-03-19T03:19:31.999Z,3.25
2023-03-19T03:22:00.960Z,3.47
2023-03-19T03:24:29.641Z,3.42
2023-03-19T03:26:58.261Z,2.70
2023-03-19T03:29:27.049Z,2.40
2023-03-19T03:31:55.501Z,2.55
2023-03-19T03:34:25.488Z,3.38
2023-03-19T03:36:53.881Z,2.95
2023-03-19T03:39:22.619Z,4.10
2023-03-19T03:41:51.529Z,2.92
2023-03-19T03:44:20.051Z,3.70
2023-03-19T03:46:49.314Z,3.03
2023-03-19T03:49:17.756Z,2.67
2023-03-19T03:51:47.905Z,4.03
2023-03-19T03:54:16.596Z,4.15
2023-03-19T03:56:45.042Z,1.95
2023-03-19T03:59:13.608Z,4.55
2023-03-19T04:01:42.126Z,3.50
2023-03-19T04:04:10.818Z,3.20
2023-03-19T04:06:39.367Z,3.17
2023-03-19T04:09:20.363Z,3.58
2023-03-19T04:11:51.372Z,2.38
2023-03-19T04:14:20.008Z,2.45
2023-03-19T04:16:48.469Z,3.25
2023-03-19T04:19:16.968Z,2.95
2023-03-19T04:21:45.591Z,3.50
2023-03-19T04:24:14.436Z,3.72
2023-03-19T04:26:44.269Z,2.55
2023-03-19T04:29:12.716Z,2.08
2023-03-19T04:31:41.324Z,2.45
2023-03-19T04:34:09.851Z,2.83
2023-03-19T04:36:38.504Z,2.38
2023-03-19T04:39:07.120Z,2.22
2023-03-19T04:41:35.786Z,3.10
2023-03-19T04:44:25.798Z,2.20
2023-03-19T04:46:54.607Z,3.65
2023-03-19T04:49:24.354Z,3.25
2023-03-19T04:51:53.992Z,3.53
2023-03-19T04:54:22.380Z,4.45
2023-03-19T04:56:51.079Z,5.25
2023-03-19T04:59:23.314Z,3.58
2023-03-19T05:01:53.616Z,4.05
2023-03-19T05:04:24.909Z,2.65
2023-03-19T05:06:57.282Z,2.92
2023-03-19T05:09:26.030Z,3.67
2023-03-19T05:11:54.367Z,2.85
2023-03-19T05:14:24.253Z,3.75
2023-03-19T05:17:08.573Z,4.07
2023-03-19T05:19:48.729Z,2.40
2023-03-19T05:22:17.998Z,3.75
2023-03-19T05:24:46.754Z,3.15
2023-03-19T05:27:15.215Z,2.88
2023-03-19T05:29:55.299Z,3.05
2023-03-19T05:32:35.494Z,2.80
2023-03-19T05:35:11.237Z,3.72
2023-03-19T05:37:40.011Z,3.90
2023-03-19T05:40:09.800Z,4.38
2023-03-19T05:42:38.955Z,4.30
2023-03-19T05:45:08.719Z,2.67
2023-03-19T05:47:50.113Z,4.00
2023-03-19T05:50:20.079Z,3.47
2023-03-19T05:53:08.727Z,4.05
2023-03-19T05:55:40.687Z,3.10
2023-03-19T05:58:12.057Z,4.20
2023-03-19T06:00:40.438Z,4.22
2023-03-19T06:03:10.280Z,3.63
2023-03-19T06:05:50.560Z,2.55
2023-03-19T06:08:36.599Z,5.68
2023-03-19T06:11:13.592Z,3.53
2023-03-19T06:13:43.423Z,3.60
2023-03-19T06:16:16.821Z,4.70
2023-03-19T06:18:54.774Z,4.55
2023-03-19T06:21:29.364Z,4.22
2023-03-19T06:24:00.385Z,4.00
2023-03-19T06:26:35.093Z,3.85
2023-03-19T06:29:08.503Z,4.85
2023-03-19T06:31:39.333Z,3.22
2023-03-19T06:34:18.177Z,3.05
2023-03-19T06:36:46.929Z,4.30
2023-03-19T06:39:17.908Z,3.20
2023-03-19T06:41:46.395Z,3.13
2023-03-19T06:44:27.331Z,4.10
2023-03-19T06:46:55.740Z,3.85
2023-03-19T06:49:26.146Z,3.13
2023-03-19T06:51:54.512Z,3.20
2023-03-19T06:54:23.162Z,4.65
2023-03-19T06:56:51.690Z,3.83
2023-03-19T06:59:20.193Z,3.22
2023-03-19T07:01:48.538Z,4.97
2023-03-19T07:04:17.877Z,4.78
2023-03-19T07:06:47.679Z,4.38
2023-03-19T07:09:16.130Z,5.05
2023-03-19T07:11:44.589Z,3.90
2023-03-19T07:14:13.010Z,3.92
2023-03-19T07:16:41.468Z,3.35
2023-03-19T07:19:09.843Z,4.47
2023-03-19T07:21:38.223Z,4.75
2023-03-19T07:24:08.146Z,5.03
2023-03-19T07:26:36.624Z,3.88
2023-03-19T07:29:05.071Z,3.70
2023-03-19T07:31:33.550Z,3.88
2023-03-19T07:34:01.942Z,3.58
2023-03-19T07:36:30.863Z,3.53
2023-03-19T07:38:59.245Z,4.53
2023-03-19T07:41:29.124Z,4.70
2023-03-19T07:43:57.515Z,2.10
2023-03-19T07:46:26.381Z,3.05
2023-03-19T07:48:55.223Z,5.00
2023-03-19T07:51:23.586Z,2.90
2023-03-19T07:53:51.916Z,2.53
2023-03-19T07:56:20.318Z,3.47
2023-03-19T07:58:50.066Z,2.60
2023-03-19T08:01:18.508Z,2.58
2023-03-19T08:03:48.304Z,2.83
2023-03-19T08:06:16.930Z,3.33
2023-03-19T08:08:45.836Z,3.58
2023-03-19T08:11:14.227Z,2.47
2023-03-19T08:13:43.261Z,2.60
2023-03-19T08:16:13.445Z,4.60
2023-03-19T08:18:51.235Z,2.70
2023-03-19T08:21:20.446Z,2.50
2023-03-19T08:23:48.828Z,2.15
2023-03-19T08:26:17.202Z,2.67
2023-03-19T08:28:50.039Z,3.15
2023-03-19T08:31:28.678Z,3.78
2023-03-19T08:33:59.986Z,3.40
2023-03-19T08:36:28.352Z,4.97
2023-03-19T08:38:56.911Z,6.18
2023-03-19T08:41:27.701Z,4.07
2023-03-19T08:43:56.130Z,5.07
2023-03-19T08:46:25.069Z,2.83
2023-03-19T08:48:54.912Z,3.45
2023-03-19T08:51:32.063Z,2.88
2023-03-19T08:54:00.741Z,2.75
2023-03-19T08:56:29.085Z,2.67
2023-03-19T08:58:58.054Z,2.40
2023-03-19T09:01:26.508Z,2.67
2023-03-19T09:03:56.441Z,2.78
2023-03-19T09:06:24.769Z,3.30
2023-03-19T09:08:53.372Z,2.08
2023-03-19T09:11:23.323Z,3.10
2023-03-19T09:13:51.719Z,1.88
2023-03-19T09:16:26.607Z,2.47
2023-03-19T09:18:59.229Z,3.15
2023-03-19T09:21:27.848Z,2.55
2023-03-19T09:23:58.113Z,2.00
2023-03-19T09:26:26.669Z,3.05
2023-03-19T09:28:55.154Z,2.40
2023-03-19T09:31:23.706Z,2.67
2023-03-19T09:33:52.267Z,2.08
2023-03-19T09:36:21.951Z,3.25
2023-03-19T09:38:50.315Z,2.95
2023-03-19T09:41:28.244Z,2.00
2023-03-19T09:44:02.772Z,1.77
2023-03-19T09:46:46.670Z,1.80
2023-03-19T09:49:23.443Z,2.38
2023-03-19T09:51:55.946Z,1.70
2023-03-19T09:54:38.292Z,0.88
2023-03-19T09:57:12.699Z,0.80
2023-03-19T09:59:42.454Z,1.20
2023-03-19T10:02:40.113Z,0.93
2023-03-19T10:05:19.122Z,1.27
2023-03-19T10:08:14.529Z,1.88
2023-03-19T10:11:12.972Z,0.90
2023-03-19T10:13:54.344Z,1.55
2023-03-19T10:16:25.812Z,1.10
2023-03-19T10:18:59.268Z,1.67
2023-03-19T10:21:39.644Z,0.90
2023-03-19T10:24:14.393Z,1.00
2023-03-19T10:26:45.731Z,1.10
2023-03-19T10:29:27.158Z,1.30
2023-03-19T10:32:04.816Z,1.33
2023-03-19T10:34:35.360Z,0.75
2023-03-19T10:37:13.136Z,0.73
2023-03-19T10:39:53.926Z,0.70
2023-03-19T10:42:35.693Z,0.60
2023-03-19T10:45:19.576Z,0.90
2023-03-19T10:47:48.138Z,1.10
2023-03-19T10:50:19.383Z,0.80
2023-03-19T10:52:55.861Z,0.60
2023-03-19T10:55:30.909Z,0.65
2023-03-19T10:58:04.672Z,0.30
2023-03-19T11:00:35.446Z,0.50
2023-03-19T11:03:31.769Z,0.50
2023-03-19T11:06:17.061Z,0.50
2023-03-19T11:08:58.014Z,0.85
2023-03-19T11:11:36.846Z,0.40
2023-03-19T11:14:21.233Z,0.50
2023-03-19T11:16:55.698Z,0.57
2023-03-19T11:19:27.949Z,0.57
2023-03-19T11:22:32.235Z,0.57
2023-03-19T11:25:02.835Z,0.60
2023-03-19T11:27:34.796Z,0.80
2023-03-19T11:30:06.284Z,0.70
2023-03-19T11:32:54.146Z,1.02
2023-03-19T11:35:28.618Z,0.60
2023-03-19T11:38:02.276Z,0.52
2023-03-19T11:40:38.719Z,0.50
2023-03-19T11:43:50.798Z,0.52
2023-03-19T11:46:35.434Z,0.50
2023-03-19T11:49:50.695Z,0.55
2023-03-19T11:52:27.078Z,0.77
2023-03-19T11:55:17.035Z,0.60
2023-03-19T11:58:09.146Z,0.70
2023-03-19T12:00:50.926Z,0.77
2023-03-19T12:03:55.682Z,0.55
2023-03-19T12:06:39.897Z,1.08
2023-03-19T12:09:13.316Z,1.38
2023-03-19T12:12:01.098Z,0.95
2023-03-19T12:14:40.098Z,1.00
2023-03-19T12:17:26.190Z,1.33
2023-03-19T12:20:10.436Z,1.15
2023-03-19T12:22:50.596Z,1.90
2023-03-19T12:26:04.282Z,1.25
2023-03-19T12:28:40.031Z,0.80
2023-03-19T12:31:54.803Z,4.50
2023-03-19T12:34:43.562Z,1.65
2023-03-19T12:37:21.285Z,1.73
2023-03-19T12:40:14.578Z,1.20
2023-03-19T12:42:43.518Z,1.52
2023-03-19T12:45:27.452Z,1.08
2023-03-19T12:48:10.795Z,1.17
2023-03-19T12:50:44.110Z,1.10
2023-03-19T12:53:27.713Z,1.42
2023-03-19T12:56:06.004Z,2.88
2023-03-19T12:58:43.651Z,1.35
2023-03-19T13:01:21.358Z,1.00
2023-03-19T13:03:57.816Z,1.05
2023-03-19T13:06:32.135Z,1.27
2023-03-19T13:09:06.218Z,2.17
2023-03-19T13:11:51.281Z,0.95
2023-03-19T13:14:26.603Z,0.68
2023-03-19T13:19:46.710Z,0.77
2023-03-19T13:22:20.724Z,0.77
2023-03-19T13:24:51.119Z,0.52
2023-03-19T13:27:31.879Z,0.57
2023-03-19T13:30:07.854Z,0.60
2023-03-19T13:32:41.350Z,0.70
2023-03-19T13:35:24.444Z,0.50
2023-03-19T13:37:59.866Z,0.60
2023-03-19T13:41:01.519Z,0.50
2023-03-19T13:43:54.035Z,0.60
2023-03-19T13:46:47.416Z,0.88
2023-03-19T13:49:32.042Z,0.95
2023-03-19T13:52:40.070Z,0.85
2023-03-19T13:55:49.457Z,0.73
2023-03-19T13:58:39.637Z,1.40
2023-03-19T14:01:38.823Z,1.27
2023-03-19T14:04:16.934Z,0.75
2023-03-19T14:06:56.034Z,0.90
2023-03-19T14:09:42.116Z,1.23
2023-03-19T14:12:37.464Z,0.50
2023-03-19T14:15:18.126Z,1.20
2023-03-19T14:18:15.255Z,0.52
2023-03-19T14:20:48.350Z,0.47
2023-03-19T14:23:36.120Z,0.50
2023-03-19T14:26:32.928Z,0.50
2023-03-19T14:29:03.495Z,1.45
2023-03-19T14:31:48.384Z,0.60
2023-03-19T14:34:27.088Z,1.07
2023-03-19T14:37:18.876Z,1.17
2023-03-19T14:39:53.770Z,1.10
2023-03-19T14:42:27.024Z,0.95
2023-03-19T14:45:30.366Z,0.70
2023-03-19T14:48:22.294Z,1.58
2023-03-19T14:51:12.957Z,0.82
2023-03-19T14:53:45.376Z,0.50
2023-03-19T14:56:26.110Z,0.50
2023-03-19T14:58:56.830Z,0.60
2023-03-19T15:01:27.944Z,0.60
2023-03-19T15:04:00.086Z,2.80
2023-03-19T15:06:41.080Z,1.23
2023-03-19T15:09:19.292Z,1.58
2023-03-19T15:12:31.433Z,3.00
2023-03-19T15:15:17.645Z,1.08
2023-03-19T15:18:04.215Z,2.75
2023-03-19T15:20:38.351Z,1.58
2023-03-19T15:23:23.473Z,0.60
2023-03-19T15:26:01.142Z,0.90
2023-03-19T15:28:32.316Z,0.50
2023-03-19T15:31:14.421Z,0.55
2023-03-19T15:33:51.251Z,0.60
2023-03-19T15:36:24.366Z,0.50
2023-03-19T15:38:58.901Z,0.80
2023-03-19T15:41:34.268Z,1.27
2023-03-19T15:44:08.044Z,1.10
2023-03-19T15:46:39.540Z,1.20
2023-03-19T15:49:24.077Z,1.77
2023-03-19T15:51:56.683Z,3.13
2023-03-19T15:54:27.316Z,3.28
2023-03-19T15:56:57.175Z,1.17
2023-03-19T15:59:38.989Z,1.67
2023-03-19T16:02:23.657Z,2.33
2023-03-19T16:07:43.709Z,2.10
2023-03-19T16:10:49.154Z,1.90
2023-03-19T16:13:29.638Z,2.13
2023-03-19T16:16:12.114Z,2.55
2023-03-19T16:18:50.440Z,2.58
2023-03-19T16:21:21.769Z,2.63
2023-03-19T16:23:59.085Z,2.03
2023-03-19T16:26:40.241Z,1.80
2023-03-19T16:29:19.524Z,1.35
2023-03-19T16:31:52.728Z,2.22
2023-03-19T16:34:37.576Z,1.95
2023-03-19T16:37:29.101Z,1.35
2023-03-19T16:40:06.130Z,2.08
2023-03-19T16:42:43.432Z,3.97
2023-03-19T16:45:23.396Z,2.08
2023-03-19T16:48:00.156Z,3.00
2023-03-19T16:50:31.143Z,2.33
2023-03-19T16:53:01.122Z,2.40
2023-03-19T16:55:33.288Z,2.83
2023-03-19T16:58:08.488Z,2.50
2023-03-19T17:00:36.892Z,3.25
2023-03-19T17:03:13.530Z,2.40
2023-03-19T17:05:44.328Z,4.18
2023-03-19T17:08:21.764Z,3.13
2023-03-19T17:10:52.852Z,3.17
2023-03-19T17:13:28.038Z,3.67
2023-03-19T17:16:02.348Z,4.57
2023-03-19T17:18:36.496Z,4.28
2023-03-19T17:21:10.549Z,4.85
2023-03-19T17:23:39.286Z,3.15
2023-03-19T17:26:20.453Z,6.10
2023-03-19T17:28:51.157Z,4.25
2023-03-19T17:31:26.421Z,3.28
2023-03-19T17:34:12.007Z,5.32
2023-03-19T17:36:40.934Z,3.40
2023-03-19T17:39:12.661Z,6.68
2023-03-19T17:41:41.099Z,6.25
2023-03-19T17:44:18.223Z,7.45
2023-03-19T17:46:49.819Z,5.45
2023-03-19T17:49:22.339Z,9.35
2023-03-19T17:51:51.640Z,5.22
2023-03-19T17:54:20.913Z,6.15
2023-03-19T17:56:49.832Z,6.15
2023-03-19T17:59:19.570Z,6.90
2023-03-19T18:01:48.057Z,4.90
2023-03-19T18:04:19.257Z,8.88
2023-03-19T18:06:51.637Z,7.25
2023-03-19T18:09:22.281Z,4.90
2023-03-19T18:11:50.977Z,4.43
2023-03-19T18:14:20.774Z,5.60
2023-03-19T18:16:49.446Z,4.40
2023-03-19T18:19:22.006Z,6.78
2023-03-19T18:21:50.337Z,6.55
2023-03-19T18:24:18.734Z,8.05
2023-03-19T18:26:47.075Z,7.95
2023-03-19T18:29:16.198Z,6.25
2023-03-19T18:31:48.719Z,6.15
2023-03-19T18:34:17.974Z,7.80
2023-03-19T18:36:46.627Z,7.22
2023-03-19T18:39:16.720Z,5.15
2023-03-19T18:41:45.309Z,7.10
2023-03-19T18:44:13.771Z,7.22
2023-03-19T18:46:43.281Z,6.38
2023-03-19T18:49:20.949Z,8.68
2023-03-19T18:52:01.449Z,9.75
2023-03-19T18:54:31.572Z,10.77
2023-03-19T18:57:01.369Z,8.35
2023-03-19T18:59:32.533Z,8.05
2023-03-19T19:02:03.279Z,7.90
2023-03-19T19:04:33.171Z,7.50
2023-03-19T19:07:01.834Z,8.52
2023-03-19T19:09:30.327Z,11.10
2023-03-19T19:12:01.897Z,9.90
2023-03-19T19:14:30.891Z,10.25
2023-03-19T19:16:59.340Z,10.15
2023-03-19T19:19:28.605Z,9.75
2023-03-19T19:21:58.427Z,11.57
2023-03-19T19:24:26.901Z,11.88
2023-03-19T19:26:56.713Z,18.52
2023-03-19T19:29:28.184Z,21.55
2023-03-19T19:31:57.148Z,21.52
2023-03-19T19:34:25.493Z,22.40
2023-03-19T19:36:57.421Z,26.02
2023-03-19T19:39:27.195Z,23.95
2023-03-19T19:41:56.069Z,27.67
2023-03-19T19:44:24.479Z,25.63
2023-03-19T19:46:54.487Z,26.40
2023-03-19T19:49:23.115Z,27.48
2023-03-19T19:51:51.749Z,22.75
2023-03-19T19:54:21.291Z,24.50
2023-03-19T19:56:52.242Z,22.95
2023-03-19T19:59:23.788Z,24.05
2023-03-19T20:01:52.360Z,21.10
2023-03-19T20:04:21.668Z,21.85
2023-03-19T20:06:51.233Z,27.88
2023-03-19T20:09:19.837Z,26.10
2023-03-19T20:11:48.413Z,30.02
2023-03-19T20:14:18.100Z,30.33
2023-03-19T20:16:47.141Z,32.05
2023-03-19T20:19:20.009Z,32.70
2023-03-19T20:21:48.401Z,31.45
2023-03-19T20:24:18.294Z,31.77
2023-03-19T20:26:46.884Z,30.70
2023-03-19T20:29:16.425Z,30.85
2023-03-19T20:31:47.742Z,27.85
2023-03-19T20:34:28.738Z,23.63
2023-03-19T20:37:05.186Z,24.42
2023-03-19T20:39:33.529Z,21.33
2023-03-19T20:42:01.839Z,23.17
2023-03-19T20:44:30.472Z,22.70
2023-03-19T20:47:00.527Z,22.08
2023-03-19T20:49:30.887Z,22.27
2023-03-19T20:51:59.383Z,22.23
2023-03-19T20:54:27.772Z,20.88
2023-03-19T20:56:56.210Z,22.65
2023-03-19T20:59:26.450Z,22.90
2023-03-19T21:01:56.378Z,20.50
2023-03-19T21:04:26.312Z,20.70
2023-03-19T21:06:56.296Z,21.63
2023-03-19T21:09:25.969Z,17.88
2023-03-19T21:11:54.416Z,20.17
2023-03-19T21:14:26.577Z,20.75
2023-03-19T21:16:55.085Z,19.55
2023-03-19T21:19:26.631Z,18.63
2023-03-19T21:21:56.401Z,20.60
2023-03-19T21:24:25.979Z,18.95
2023-03-19T21:26:56.048Z,19.27
2023-03-19T21:29:29.739Z,18.83
2023-03-19T21:31:58.248Z,18.02
2023-03-19T21:34:28.217Z,18.42
2023-03-19T21:36:58.015Z,19.40
2023-03-19T21:39:26.538Z,21.02
2023-03-19T21:41:57.040Z,20.02
2023-03-19T21:44:29.516Z,19.73
2023-03-19T21:46:58.065Z,18.23
2023-03-19T21:49:26.890Z,16.80
2023-03-19T21:51:56.948Z,18.33
2023-03-19T21:54:26.652Z,21.88
2023-03-19T21:56:55.340Z,19.92
2023-03-19T21:59:27.957Z,17.98
2023-03-19T22:01:56.340Z,17.70
2023-03-19T22:04:24.784Z,18.60
2023-03-19T22:06:53.539Z,18.38
2023-03-19T22:09:22.134Z,16.92
2023-03-19T22:11:52.277Z,17.10
2023-03-19T22:14:27.126Z,15.85
2023-03-19T22:16:56.768Z,15.90
2023-03-19T22:19:25.793Z,16.20
2023-03-19T22:21:55.116Z,16.92
2023-03-19T22:24:23.578Z,19.13
2023-03-19T22:26:58.272Z,21.10
2023-03-19T22:29:26.686Z,20.77
2023-03-19T22:31:57.221Z,20.20
2023-03-19T22:34:28.658Z,22.90
2023-03-19T22:36:57.452Z,20.98
2023-03-19T22:39:25.902Z,19.30
2023-03-19T22:41:55.667Z,20.02
2023-03-19T22:44:27.408Z,21.63
2023-03-19T22:46:57.497Z,19.33
2023-03-19T22:49:26.309Z,21.40
2023-03-19T22:51:55.580Z,21.73
2023-03-19T22:54:23.976Z,24.30
2023-03-19T22:56:52.318Z,20.98
2023-03-19T22:59:22.860Z,21.48
2023-03-19T23:01:51.436Z,19.85
2023-03-19T23:04:22.608Z,20.27
2023-03-19T23:06:52.384Z,20.75
2023-03-19T23:09:22.777Z,21.17
2023-03-19T23:11:53.520Z,23.20
2023-03-19T23:14:30.211Z,20.23
2023-03-19T23:17:02.996Z,17.92
2023-03-19T23:19:33.025Z,20.70
2023-03-19T23:22:03.460Z,17.98
2023-03-19T23:24:32.303Z,19.70
2023-03-19T23:27:02.253Z,20.50
2023-03-19T23:29:35.214Z,19.10
2023-03-19T23:32:04.358Z,18.40
2023-03-19T23:34:39.804Z,18.55
2023-03-19T23:37:14.338Z,18.15
2023-03-19T23:39:42.748Z,18.00
2023-03-19T23:42:25.091Z,17.38
2023-03-19T23:44:58.943Z,16.23
2023-03-19T23:47:29.817Z,17.10
2023-03-19T23:49:58.505Z,16.48
2023-03-19T23:52:27.094Z,17.35
2023-03-19T23:54:56.864Z,15.32
2023-03-19T23:57:27.058Z,16.90
2023-03-19T23:59:56.904Z,16.63
